North Monmouth, Maine
Current Conditions -  °F | °C
As of 3:53 AM on Friday 28 Nov 2014 (Local Time) from KAUG Reporting Station
Broken Clouds Broken Clouds  
Wind Chill: 12°   Ceiling: 12000
Heat Index: 19°   Visibility: 10mi
Dew Point: 16°   Wind: 5mph
Humidity: 88%   Direction: 40°NE
Pressure: 30.02"   Gusts: NA
Location:  44.28°N, 70.03°W
Report Text: KAUG 280853Z AUTO 04004KT 10SM BKN120 M07/M09 A3002 RMK AO2 SLP171 T10721089 50003
Loading
Personal Weather Stations






























Interactive Weather Map New forecast layout! Learn more

10-Day Weather Forecast

Advertisements
Track Severe Weather on mobile